sensor_id;sensor_type;location;lat;lon;timestamp;P1;durP1;ratioP1;P2;durP2;ratioP2
4106;SDS011;21906;50.812;7.132;2023-03-29T00:01:47;3.60;;;3.00;;
4106;SDS011;21906;50.812;7.132;2023-03-29T00:04:13;3.40;;;3.10;;
4106;SDS011;21906;50.812;7.132;2023-03-29T00:06:43;6.00;;;3.17;;
4106;SDS011;21906;50.812;7.132;2023-03-29T00:09:12;5.50;;;3.10;;
4106;SDS011;21906;50.812;7.132;2023-03-29T00:11:39;3.17;;;2.63;;
4106;SDS011;21906;50.812;7.132;2023-03-29T00:14:05;3.97;;;2.90;;
4106;SDS011;21906;50.812;7.132;2023-03-29T00:16:31;3.47;;;3.17;;
4106;SDS011;21906;50.812;7.132;2023-03-29T00:18:57;3.93;;;3.63;;
4106;SDS011;21906;50.812;7.132;2023-03-29T00:21:23;3.60;;;3.20;;
4106;SDS011;21906;50.812;7.132;2023-03-29T00:23:48;3.50;;;3.10;;
4106;SDS011;21906;50.812;7.132;2023-03-29T00:26:14;3.50;;;3.20;;
4106;SDS011;21906;50.812;7.132;2023-03-29T00:28:40;3.20;;;2.90;;
4106;SDS011;21906;50.812;7.132;2023-03-29T00:31:07;4.67;;;3.17;;
4106;SDS011;21906;50.812;7.132;2023-03-29T00:33:34;3.73;;;3.40;;
4106;SDS011;21906;50.812;7.132;2023-03-29T00:36:00;3.13;;;2.93;;
4106;SDS011;21906;50.812;7.132;2023-03-29T00:38:27;3.50;;;3.20;;
4106;SDS011;21906;50.812;7.132;2023-03-29T00:40:54;4.00;;;3.10;;
4106;SDS011;21906;50.812;7.132;2023-03-29T00:43:19;3.17;;;2.87;;
4106;SDS011;21906;50.812;7.132;2023-03-29T00:45:45;3.30;;;3.00;;
4106;SDS011;21906;50.812;7.132;2023-03-29T00:48:12;3.63;;;3.33;;
4106;SDS011;21906;50.812;7.132;2023-03-29T00:53:08;5.60;;;3.10;;
4106;SDS011;21906;50.812;7.132;2023-03-29T00:58:21;3.40;;;3.10;;
4106;SDS011;21906;50.812;7.132;2023-03-29T01:01:11;3.27;;;3.07;;
4106;SDS011;21906;50.812;7.132;2023-03-29T01:03:53;3.60;;;3.27;;
4106;SDS011;21906;50.812;7.132;2023-03-29T01:06:27;3.30;;;3.00;;
4106;SDS011;21906;50.812;7.132;2023-03-29T01:08:58;3.60;;;3.40;;
4106;SDS011;21906;50.812;7.132;2023-03-29T01:11:28;3.67;;;3.33;;
4106;SDS011;21906;50.812;7.132;2023-03-29T01:14:03;3.33;;;3.03;;
4106;SDS011;21906;50.812;7.132;2023-03-29T01:16:34;3.63;;;3.30;;
4106;SDS011;21906;50.812;7.132;2023-03-29T01:19:03;3.73;;;3.30;;
4106;SDS011;21906;50.812;7.132;2023-03-29T01:30:17;6.60;;;3.60;;
4106;SDS011;21906;50.812;7.132;2023-03-29T01:32:55;3.67;;;3.37;;
4106;SDS011;21906;50.812;7.132;2023-03-29T01:35:48;3.83;;;3.50;;
4106;SDS011;21906;50.812;7.132;2023-03-29T01:38:41;3.73;;;3.43;;
4106;SDS011;21906;50.812;7.132;2023-03-29T01:41:07;4.07;;;3.20;;
4106;SDS011;21906;50.812;7.132;2023-03-29T01:43:48;4.80;;;3.30;;
4106;SDS011;21906;50.812;7.132;2023-03-29T01:46:24;3.83;;;3.43;;
4106;SDS011;21906;50.812;7.132;2023-03-29T01:48:55;3.93;;;3.40;;
4106;SDS011;21906;50.812;7.132;2023-03-29T01:54:10;3.83;;;3.47;;
4106;SDS011;21906;50.812;7.132;2023-03-29T01:56:41;2.93;;;2.73;;
4106;SDS011;21906;50.812;7.132;2023-03-29T01:59:10;3.90;;;3.07;;
4106;SDS011;21906;50.812;7.132;2023-03-29T02:01:40;3.50;;;3.07;;
4106;SDS011;21906;50.812;7.132;2023-03-29T02:04:13;2.90;;;2.60;;
4106;SDS011;21906;50.812;7.132;2023-03-29T02:06:43;3.40;;;2.70;;
4106;SDS011;21906;50.812;7.132;2023-03-29T02:09:11;3.50;;;3.20;;
4106;SDS011;21906;50.812;7.132;2023-03-29T02:11:37;2.90;;;2.70;;
4106;SDS011;21906;50.812;7.132;2023-03-29T02:14:05;3.63;;;2.83;;
4106;SDS011;21906;50.812;7.132;2023-03-29T02:16:35;3.50;;;3.20;;
4106;SDS011;21906;50.812;7.132;2023-03-29T02:19:04;3.90;;;3.30;;
4106;SDS011;21906;50.812;7.132;2023-03-29T02:21:33;3.40;;;2.90;;
4106;SDS011;21906;50.812;7.132;2023-03-29T02:24:12;3.10;;;2.90;;
4106;SDS011;21906;50.812;7.132;2023-03-29T02:26:40;3.37;;;3.07;;
4106;SDS011;21906;50.812;7.132;2023-03-29T02:29:06;3.10;;;2.90;;
4106;SDS011;21906;50.812;7.132;2023-03-29T02:31:36;3.50;;;3.20;;
4106;SDS011;21906;50.812;7.132;2023-03-29T02:36:54;3.00;;;2.70;;
4106;SDS011;21906;50.812;7.132;2023-03-29T02:39:26;3.07;;;2.67;;
4106;SDS011;21906;50.812;7.132;2023-03-29T02:41:55;4.43;;;3.37;;
4106;SDS011;21906;50.812;7.132;2023-03-29T02:44:26;3.03;;;2.80;;
4106;SDS011;21906;50.812;7.132;2023-03-29T02:47:36;3.10;;;2.80;;
4106;SDS011;21906;50.812;7.132;2023-03-29T02:49:44;3.50;;;3.20;;
4106;SDS011;21906;50.812;7.132;2023-03-29T02:52:12;3.00;;;2.80;;
4106;SDS011;21906;50.812;7.132;2023-03-29T02:54:40;4.10;;;3.10;;
4106;SDS011;21906;50.812;7.132;2023-03-29T02:57:10;3.10;;;2.90;;
4106;SDS011;21906;50.812;7.132;2023-03-29T02:59:36;2.90;;;2.70;;
4106;SDS011;21906;50.812;7.132;2023-03-29T03:02:05;3.40;;;3.10;;
4106;SDS011;21906;50.812;7.132;2023-03-29T03:04:31;3.47;;;3.17;;
4106;SDS011;21906;50.812;7.132;2023-03-29T03:06:59;3.33;;;3.03;;
4106;SDS011;21906;50.812;7.132;2023-03-29T03:09:25;3.17;;;2.80;;
4106;SDS011;21906;50.812;7.132;2023-03-29T03:11:51;3.97;;;3.67;;
4106;SDS011;21906;50.812;7.132;2023-03-29T03:14:17;3.17;;;2.77;;
4106;SDS011;21906;50.812;7.132;2023-03-29T03:16:46;3.00;;;2.70;;
4106;SDS011;21906;50.812;7.132;2023-03-29T03:19:12;3.60;;;3.30;;
4106;SDS011;21906;50.812;7.132;2023-03-29T03:21:39;3.60;;;3.00;;
4106;SDS011;21906;50.812;7.132;2023-03-29T03:24:05;3.77;;;3.20;;
4106;SDS011;21906;50.812;7.132;2023-03-29T03:26:31;3.53;;;3.23;;
4106;SDS011;21906;50.812;7.132;2023-03-29T03:28:57;3.20;;;2.60;;
4106;SDS011;21906;50.812;7.132;2023-03-29T03:31:23;2.97;;;2.77;;
4106;SDS011;21906;50.812;7.132;2023-03-29T03:33:49;3.60;;;3.30;;
4106;SDS011;21906;50.812;7.132;2023-03-29T03:36:14;3.17;;;2.97;;
4106;SDS011;21906;50.812;7.132;2023-03-29T03:38:40;3.00;;;2.70;;
4106;SDS011;21906;50.812;7.132;2023-03-29T03:41:07;4.90;;;2.97;;
4106;SDS011;21906;50.812;7.132;2023-03-29T03:43:33;3.63;;;3.33;;
4106;SDS011;21906;50.812;7.132;2023-03-29T03:45:59;3.30;;;2.87;;
4106;SDS011;21906;50.812;7.132;2023-03-29T03:48:25;4.50;;;3.10;;
4106;SDS011;21906;50.812;7.132;2023-03-29T03:50:52;3.67;;;3.30;;
4106;SDS011;21906;50.812;7.132;2023-03-29T03:53:20;3.43;;;3.20;;
4106;SDS011;21906;50.812;7.132;2023-03-29T03:55:50;3.17;;;2.97;;
4106;SDS011;21906;50.812;7.132;2023-03-29T03:58:17;4.73;;;3.40;;
4106;SDS011;21906;50.812;7.132;2023-03-29T04:00:45;4.80;;;3.23;;
4106;SDS011;21906;50.812;7.132;2023-03-29T04:03:12;3.50;;;3.10;;
4106;SDS011;21906;50.812;7.132;2023-03-29T04:05:41;3.33;;;3.03;;
4106;SDS011;21906;50.812;7.132;2023-03-29T04:08:08;3.00;;;2.80;;
4106;SDS011;21906;50.812;7.132;2023-03-29T04:10:36;3.23;;;3.03;;
4106;SDS011;21906;50.812;7.132;2023-03-29T04:13:03;3.47;;;3.17;;
4106;SDS011;21906;50.812;7.132;2023-03-29T04:15:30;3.43;;;3.13;;
4106;SDS011;21906;50.812;7.132;2023-03-29T04:17:57;3.90;;;3.20;;
4106;SDS011;21906;50.812;7.132;2023-03-29T04:20:24;3.30;;;3.10;;
4106;SDS011;21906;50.812;7.132;2023-03-29T04:22:51;3.27;;;2.87;;
4106;SDS011;21906;50.812;7.132;2023-03-29T04:25:18;3.50;;;3.20;;
4106;SDS011;21906;50.812;7.132;2023-03-29T04:27:45;3.40;;;3.10;;
4106;SDS011;21906;50.812;7.132;2023-03-29T04:30:11;3.30;;;3.00;;
4106;SDS011;21906;50.812;7.132;2023-03-29T04:32:37;3.50;;;3.20;;
4106;SDS011;21906;50.812;7.132;2023-03-29T04:35:03;3.13;;;2.93;;
4106;SDS011;21906;50.812;7.132;2023-03-29T04:37:30;3.03;;;2.83;;
4106;SDS011;21906;50.812;7.132;2023-03-29T04:39:56;3.27;;;3.07;;
4106;SDS011;21906;50.812;7.132;2023-03-29T04:42:28;4.87;;;3.13;;
4106;SDS011;21906;50.812;7.132;2023-03-29T04:44:54;3.50;;;3.20;;
4106;SDS011;21906;50.812;7.132;2023-03-29T04:47:21;3.30;;;3.00;;
4106;SDS011;21906;50.812;7.132;2023-03-29T04:49:46;4.20;;;3.50;;
4106;SDS011;21906;50.812;7.132;2023-03-29T04:52:12;3.43;;;3.13;;
4106;SDS011;21906;50.812;7.132;2023-03-29T04:54:38;3.47;;;3.13;;
4106;SDS011;21906;50.812;7.132;2023-03-29T04:57:04;3.50;;;3.00;;
4106;SDS011;21906;50.812;7.132;2023-03-29T04:59:31;3.07;;;2.77;;
4106;SDS011;21906;50.812;7.132;2023-03-29T05:01:57;4.57;;;3.33;;
4106;SDS011;21906;50.812;7.132;2023-03-29T05:04:25;3.87;;;3.17;;
4106;SDS011;21906;50.812;7.132;2023-03-29T05:06:52;3.23;;;2.93;;
4106;SDS011;21906;50.812;7.132;2023-03-29T05:09:19;4.20;;;3.53;;
4106;SDS011;21906;50.812;7.132;2023-03-29T05:11:45;3.43;;;3.13;;
4106;SDS011;21906;50.812;7.132;2023-03-29T05:14:11;4.70;;;3.10;;
4106;SDS011;21906;50.812;7.132;2023-03-29T05:16:37;3.13;;;2.87;;
4106;SDS011;21906;50.812;7.132;2023-03-29T05:19:03;3.40;;;3.20;;
4106;SDS011;21906;50.812;7.132;2023-03-29T05:21:28;5.10;;;3.90;;
4106;SDS011;21906;50.812;7.132;2023-03-29T05:23:54;3.53;;;3.23;;
4106;SDS011;21906;50.812;7.132;2023-03-29T05:26:20;4.93;;;3.10;;
4106;SDS011;21906;50.812;7.132;2023-03-29T05:28:47;3.23;;;2.93;;
4106;SDS011;21906;50.812;7.132;2023-03-29T05:31:14;4.77;;;3.60;;
4106;SDS011;21906;50.812;7.132;2023-03-29T05:33:40;4.00;;;3.60;;
4106;SDS011;21906;50.812;7.132;2023-03-29T05:36:07;4.60;;;3.20;;
4106;SDS011;21906;50.812;7.132;2023-03-29T05:38:35;3.60;;;3.30;;
4106;SDS011;21906;50.812;7.132;2023-03-29T05:41:00;3.60;;;3.40;;
4106;SDS011;21906;50.812;7.132;2023-03-29T05:43:26;3.73;;;3.47;;
4106;SDS011;21906;50.812;7.132;2023-03-29T05:45:52;4.57;;;3.43;;
4106;SDS011;21906;50.812;7.132;2023-03-29T05:48:19;4.50;;;3.43;;
4106;SDS011;21906;50.812;7.132;2023-03-29T05:50:49;3.70;;;3.40;;
4106;SDS011;21906;50.812;7.132;2023-03-29T05:53:17;4.20;;;3.87;;
4106;SDS011;21906;50.812;7.132;2023-03-29T05:55:46;3.30;;;3.10;;
4106;SDS011;21906;50.812;7.132;2023-03-29T05:58:12;3.77;;;3.47;;
4106;SDS011;21906;50.812;7.132;2023-03-29T06:00:38;3.80;;;3.50;;
4106;SDS011;21906;50.812;7.132;2023-03-29T06:03:05;3.90;;;3.30;;
4106;SDS011;21906;50.812;7.132;2023-03-29T06:05:32;3.73;;;3.30;;
4106;SDS011;21906;50.812;7.132;2023-03-29T06:08:01;4.03;;;3.73;;
4106;SDS011;21906;50.812;7.132;2023-03-29T06:10:26;7.30;;;4.47;;
4106;SDS011;21906;50.812;7.132;2023-03-29T06:12:52;4.83;;;3.30;;
4106;SDS011;21906;50.812;7.132;2023-03-29T06:15:18;6.50;;;4.20;;
4106;SDS011;21906;50.812;7.132;2023-03-29T06:17:45;4.07;;;3.77;;
4106;SDS011;21906;50.812;7.132;2023-03-29T06:20:11;8.30;;;3.80;;
4106;SDS011;21906;50.812;7.132;2023-03-29T06:22:37;6.27;;;4.00;;
4106;SDS011;21906;50.812;7.132;2023-03-29T06:25:04;4.23;;;3.90;;
4106;SDS011;21906;50.812;7.132;2023-03-29T06:27:35;4.73;;;4.13;;
4106;SDS011;21906;50.812;7.132;2023-03-29T06:30:01;4.00;;;3.60;;
4106;SDS011;21906;50.812;7.132;2023-03-29T06:32:28;4.10;;;3.70;;
4106;SDS011;21906;50.812;7.132;2023-03-29T06:34:53;4.30;;;3.97;;
4106;SDS011;21906;50.812;7.132;2023-03-29T06:37:19;5.77;;;4.10;;
4106;SDS011;21906;50.812;7.132;2023-03-29T06:39:45;4.27;;;3.87;;
4106;SDS011;21906;50.812;7.132;2023-03-29T06:42:17;4.53;;;4.10;;
4106;SDS011;21906;50.812;7.132;2023-03-29T06:44:43;4.73;;;3.83;;
4106;SDS011;21906;50.812;7.132;2023-03-29T06:47:09;5.23;;;4.73;;
4106;SDS011;21906;50.812;7.132;2023-03-29T06:49:35;4.60;;;4.10;;
4106;SDS011;21906;50.812;7.132;2023-03-29T06:52:01;5.23;;;4.00;;
4106;SDS011;21906;50.812;7.132;2023-03-29T06:54:26;6.20;;;3.90;;
4106;SDS011;21906;50.812;7.132;2023-03-29T06:56:52;5.00;;;4.50;;
4106;SDS011;21906;50.812;7.132;2023-03-29T06:59:18;6.40;;;3.83;;
4106;SDS011;21906;50.812;7.132;2023-03-29T07:01:43;4.23;;;3.93;;
4106;SDS011;21906;50.812;7.132;2023-03-29T07:04:09;4.60;;;4.20;;
4106;SDS011;21906;50.812;7.132;2023-03-29T07:06:35;4.03;;;3.63;;
4106;SDS011;21906;50.812;7.132;2023-03-29T07:09:03;4.13;;;3.63;;
4106;SDS011;21906;50.812;7.132;2023-03-29T07:11:31;5.90;;;3.73;;
4106;SDS011;21906;50.812;7.132;2023-03-29T07:14:00;5.53;;;4.30;;
4106;SDS011;21906;50.812;7.132;2023-03-29T07:16:27;5.63;;;3.37;;
4106;SDS011;21906;50.812;7.132;2023-03-29T07:18:53;4.40;;;4.00;;
4106;SDS011;21906;50.812;7.132;2023-03-29T07:21:19;4.23;;;3.70;;
4106;SDS011;21906;50.812;7.132;2023-03-29T07:23:45;4.30;;;3.90;;
4106;SDS011;21906;50.812;7.132;2023-03-29T07:26:10;4.10;;;3.77;;
4106;SDS011;21906;50.812;7.132;2023-03-29T07:28:36;4.10;;;3.67;;
4106;SDS011;21906;50.812;7.132;2023-03-29T07:31:04;4.07;;;3.60;;
4106;SDS011;21906;50.812;7.132;2023-03-29T07:33:31;5.00;;;4.00;;
4106;SDS011;21906;50.812;7.132;2023-03-29T07:35:58;5.33;;;4.00;;
4106;SDS011;21906;50.812;7.132;2023-03-29T07:38:24;4.27;;;3.87;;
4106;SDS011;21906;50.812;7.132;2023-03-29T07:40:51;4.43;;;4.03;;
4106;SDS011;21906;50.812;7.132;2023-03-29T07:43:18;8.00;;;4.00;;
4106;SDS011;21906;50.812;7.132;2023-03-29T07:45:48;4.47;;;4.07;;
4106;SDS011;21906;50.812;7.132;2023-03-29T07:48:15;3.77;;;3.37;;
4106;SDS011;21906;50.812;7.132;2023-03-29T07:50:41;4.57;;;4.23;;
4106;SDS011;21906;50.812;7.132;2023-03-29T07:53:08;5.43;;;3.47;;
4106;SDS011;21906;50.812;7.132;2023-03-29T07:55:34;6.03;;;3.60;;
4106;SDS011;21906;50.812;7.132;2023-03-29T07:57:59;5.50;;;3.87;;
4106;SDS011;21906;50.812;7.132;2023-03-29T08:00:25;3.80;;;3.50;;
4106;SDS011;21906;50.812;7.132;2023-03-29T08:02:52;3.20;;;2.90;;
4106;SDS011;21906;50.812;7.132;2023-03-29T08:05:19;5.67;;;3.73;;
4106;SDS011;21906;50.812;7.132;2023-03-29T08:07:49;4.63;;;3.93;;
4106;SDS011;21906;50.812;7.132;2023-03-29T08:10:18;3.90;;;3.57;;
4106;SDS011;21906;50.812;7.132;2023-03-29T08:12:46;4.30;;;3.90;;
4106;SDS011;21906;50.812;7.132;2023-03-29T08:15:14;3.53;;;3.33;;
4106;SDS011;21906;50.812;7.132;2023-03-29T08:17:40;7.17;;;3.87;;
4106;SDS011;21906;50.812;7.132;2023-03-29T08:20:08;4.80;;;4.40;;
4106;SDS011;21906;50.812;7.132;2023-03-29T08:22:35;4.90;;;4.30;;
4106;SDS011;21906;50.812;7.132;2023-03-29T08:25:02;4.10;;;3.80;;
4106;SDS011;21906;50.812;7.132;2023-03-29T08:27:28;3.70;;;3.47;;
4106;SDS011;21906;50.812;7.132;2023-03-29T08:29:54;4.37;;;4.07;;
4106;SDS011;21906;50.812;7.132;2023-03-29T08:32:20;4.77;;;4.00;;
4106;SDS011;21906;50.812;7.132;2023-03-29T08:34:45;3.47;;;3.17;;
4106;SDS011;21906;50.812;7.132;2023-03-29T08:37:11;3.43;;;3.13;;
4106;SDS011;21906;50.812;7.132;2023-03-29T08:39:37;4.10;;;3.33;;
4106;SDS011;21906;50.812;7.132;2023-03-29T08:50:16;3.10;;;2.87;;
4106;SDS011;21906;50.812;7.132;2023-03-29T08:52:53;4.90;;;2.80;;
4106;SDS011;21906;50.812;7.132;2023-03-29T08:55:29;3.30;;;3.00;;
4106;SDS011;21906;50.812;7.132;2023-03-29T08:58:26;4.00;;;3.00;;
4106;SDS011;21906;50.812;7.132;2023-03-29T09:00:56;3.20;;;2.90;;
4106;SDS011;21906;50.812;7.132;2023-03-29T09:06:02;4.73;;;3.00;;
4106;SDS011;21906;50.812;7.132;2023-03-29T09:08:28;5.87;;;3.20;;
4106;SDS011;21906;50.812;7.132;2023-03-29T09:16:32;3.03;;;2.83;;
4106;SDS011;21906;50.812;7.132;2023-03-29T09:24:59;3.37;;;3.17;;
4106;SDS011;21906;50.812;7.132;2023-03-29T09:32:53;3.60;;;3.30;;
4106;SDS011;21906;50.812;7.132;2023-03-29T09:35:37;3.80;;;2.97;;
4106;SDS011;21906;50.812;7.132;2023-03-29T09:38:11;4.57;;;2.90;;
4106;SDS011;21906;50.812;7.132;2023-03-29T09:40:41;3.83;;;2.80;;
4106;SDS011;21906;50.812;7.132;2023-03-29T09:43:15;3.60;;;2.50;;
4106;SDS011;21906;50.812;7.132;2023-03-29T09:45:51;3.20;;;2.90;;
4106;SDS011;21906;50.812;7.132;2023-03-29T09:48:20;2.70;;;2.50;;
4106;SDS011;21906;50.812;7.132;2023-03-29T09:50:46;2.90;;;2.70;;
4106;SDS011;21906;50.812;7.132;2023-03-29T09:53:17;2.97;;;2.77;;
4106;SDS011;21906;50.812;7.132;2023-03-29T09:55:45;3.27;;;2.80;;
4106;SDS011;21906;50.812;7.132;2023-03-29T09:58:16;2.83;;;2.53;;
4106;SDS011;21906;50.812;7.132;2023-03-29T10:00:44;3.00;;;2.70;;
4106;SDS011;21906;50.812;7.132;2023-03-29T10:03:19;3.43;;;3.03;;
4106;SDS011;21906;50.812;7.132;2023-03-29T10:05:45;2.73;;;2.53;;
4106;SDS011;21906;50.812;7.132;2023-03-29T10:11:31;3.10;;;2.63;;
4106;SDS011;21906;50.812;7.132;2023-03-29T10:13:59;3.20;;;2.90;;
4106;SDS011;21906;50.812;7.132;2023-03-29T10:16:37;4.23;;;3.40;;
4106;SDS011;21906;50.812;7.132;2023-03-29T10:21:47;6.37;;;3.00;;
4106;SDS011;21906;50.812;7.132;2023-03-29T10:24:21;5.00;;;3.20;;
4106;SDS011;21906;50.812;7.132;2023-03-29T10:26:49;4.87;;;3.13;;
4106;SDS011;21906;50.812;7.132;2023-03-29T10:29:19;4.03;;;3.00;;
4106;SDS011;21906;50.812;7.132;2023-03-29T10:31:46;3.30;;;3.00;;
4106;SDS011;21906;50.812;7.132;2023-03-29T10:34:12;3.60;;;3.10;;
4106;SDS011;21906;50.812;7.132;2023-03-29T10:36:41;3.60;;;2.60;;
4106;SDS011;21906;50.812;7.132;2023-03-29T10:39:09;3.30;;;3.00;;
4106;SDS011;21906;50.812;7.132;2023-03-29T10:41:39;3.30;;;3.00;;
4106;SDS011;21906;50.812;7.132;2023-03-29T10:44:21;4.23;;;3.10;;
4106;SDS011;21906;50.812;7.132;2023-03-29T10:46:53;3.07;;;2.77;;
4106;SDS011;21906;50.812;7.132;2023-03-29T10:49:20;3.40;;;2.87;;
4106;SDS011;21906;50.812;7.132;2023-03-29T10:51:47;4.17;;;3.17;;
4106;SDS011;21906;50.812;7.132;2023-03-29T10:54:15;2.87;;;2.67;;
4106;SDS011;21906;50.812;7.132;2023-03-29T10:56:48;2.60;;;2.40;;
4106;SDS011;21906;50.812;7.132;2023-03-29T11:07:34;3.40;;;3.20;;
4106;SDS011;21906;50.812;7.132;2023-03-29T11:12:40;3.33;;;3.03;;
4106;SDS011;21906;50.812;7.132;2023-03-29T11:15:34;3.00;;;2.80;;
4106;SDS011;21906;50.812;7.132;2023-03-29T11:18:24;3.00;;;2.80;;
4106;SDS011;21906;50.812;7.132;2023-03-29T11:29:24;3.30;;;2.47;;
4106;SDS011;21906;50.812;7.132;2023-03-29T11:31:57;2.97;;;2.73;;
4106;SDS011;21906;50.812;7.132;2023-03-29T11:37:29;3.47;;;2.97;;
4106;SDS011;21906;50.812;7.132;2023-03-29T11:42:43;2.57;;;2.30;;
4106;SDS011;21906;50.812;7.132;2023-03-29T11:45:17;2.70;;;2.43;;
4106;SDS011;21906;50.812;7.132;2023-03-29T11:47:51;2.47;;;2.37;;
4106;SDS011;21906;50.812;7.132;2023-03-29T11:50:19;2.63;;;2.43;;
4106;SDS011;21906;50.812;7.132;2023-03-29T11:53:15;2.90;;;2.60;;
4106;SDS011;21906;50.812;7.132;2023-03-29T11:55:48;3.37;;;2.97;;
4106;SDS011;21906;50.812;7.132;2023-03-29T11:58:20;4.10;;;2.77;;
4106;SDS011;21906;50.812;7.132;2023-03-29T12:00:54;2.83;;;2.63;;
4106;SDS011;21906;50.812;7.132;2023-03-29T12:06:39;2.63;;;2.40;;
4106;SDS011;21906;50.812;7.132;2023-03-29T12:09:25;2.90;;;2.70;;
4106;SDS011;21906;50.812;7.132;2023-03-29T12:12:00;3.63;;;2.73;;
4106;SDS011;21906;50.812;7.132;2023-03-29T12:20:31;3.47;;;2.67;;
4106;SDS011;21906;50.812;7.132;2023-03-29T12:23:01;2.20;;;2.10;;
4106;SDS011;21906;50.812;7.132;2023-03-29T12:25:40;5.10;;;2.70;;
4106;SDS011;21906;50.812;7.132;2023-03-29T12:28:42;3.53;;;2.60;;
4106;SDS011;21906;50.812;7.132;2023-03-29T12:34:00;2.67;;;2.47;;
4106;SDS011;21906;50.812;7.132;2023-03-29T12:39:42;2.00;;;1.90;;
4106;SDS011;21906;50.812;7.132;2023-03-29T12:42:15;3.10;;;2.40;;
4106;SDS011;21906;50.812;7.132;2023-03-29T12:44:44;2.50;;;2.30;;
4106;SDS011;21906;50.812;7.132;2023-03-29T12:47:24;2.07;;;1.97;;
4106;SDS011;21906;50.812;7.132;2023-03-29T12:49:56;2.30;;;2.10;;
4106;SDS011;21906;50.812;7.132;2023-03-29T12:52:24;3.90;;;2.03;;
4106;SDS011;21906;50.812;7.132;2023-03-29T12:54:59;3.40;;;2.10;;
4106;SDS011;21906;50.812;7.132;2023-03-29T12:57:38;3.77;;;2.13;;
4106;SDS011;21906;50.812;7.132;2023-03-29T13:00:10;2.50;;;2.30;;
4106;SDS011;21906;50.812;7.132;2023-03-29T13:02:43;2.10;;;2.00;;
4106;SDS011;21906;50.812;7.132;2023-03-29T13:05:25;2.20;;;2.10;;
4106;SDS011;21906;50.812;7.132;2023-03-29T13:07:53;2.40;;;1.80;;
4106;SDS011;21906;50.812;7.132;2023-03-29T13:10:32;2.10;;;1.93;;
4106;SDS011;21906;50.812;7.132;2023-03-29T13:13:09;1.83;;;1.73;;
4106;SDS011;21906;50.812;7.132;2023-03-29T13:15:41;4.00;;;2.67;;
4106;SDS011;21906;50.812;7.132;2023-03-29T13:21:04;1.90;;;1.80;;
4106;SDS011;21906;50.812;7.132;2023-03-29T13:23:43;3.70;;;1.73;;
4106;SDS011;21906;50.812;7.132;2023-03-29T13:37:32;2.43;;;2.00;;
4106;SDS011;21906;50.812;7.132;2023-03-29T13:40:00;1.90;;;1.70;;
4106;SDS011;21906;50.812;7.132;2023-03-29T13:47:45;2.23;;;2.00;;
4106;SDS011;21906;50.812;7.132;2023-03-29T13:50:15;2.10;;;2.00;;
4106;SDS011;21906;50.812;7.132;2023-03-29T13:55:19;2.13;;;1.93;;
4106;SDS011;21906;50.812;7.132;2023-03-29T13:57:56;4.13;;;2.20;;
4106;SDS011;21906;50.812;7.132;2023-03-29T14:00:48;2.20;;;1.80;;
4106;SDS011;21906;50.812;7.132;2023-03-29T14:03:16;2.10;;;1.90;;
4106;SDS011;21906;50.812;7.132;2023-03-29T14:05:46;2.10;;;1.90;;
4106;SDS011;21906;50.812;7.132;2023-03-29T14:10:53;2.17;;;1.70;;
4106;SDS011;21906;50.812;7.132;2023-03-29T14:13:21;3.20;;;2.10;;
4106;SDS011;21906;50.812;7.132;2023-03-29T14:15:49;3.67;;;1.80;;
4106;SDS011;21906;50.812;7.132;2023-03-29T14:18:17;2.20;;;2.00;;
4106;SDS011;21906;50.812;7.132;2023-03-29T14:20:46;2.10;;;2.00;;
4106;SDS011;21906;50.812;7.132;2023-03-29T14:23:18;1.90;;;1.70;;
4106;SDS011;21906;50.812;7.132;2023-03-29T14:25:49;2.03;;;1.93;;
4106;SDS011;21906;50.812;7.132;2023-03-29T14:30:47;2.20;;;2.10;;
4106;SDS011;21906;50.812;7.132;2023-03-29T14:33:14;2.43;;;2.10;;
4106;SDS011;21906;50.812;7.132;2023-03-29T14:35:49;3.80;;;1.70;;
4106;SDS011;21906;50.812;7.132;2023-03-29T14:38:16;3.67;;;1.90;;
4106;SDS011;21906;50.812;7.132;2023-03-29T14:40:42;1.90;;;1.80;;
4106;SDS011;21906;50.812;7.132;2023-03-29T14:43:10;2.17;;;2.07;;
4106;SDS011;21906;50.812;7.132;2023-03-29T14:45:42;3.47;;;3.20;;
4106;SDS011;21906;50.812;7.132;2023-03-29T14:48:09;1.97;;;1.87;;
4106;SDS011;21906;50.812;7.132;2023-03-29T14:50:37;1.93;;;1.83;;
4106;SDS011;21906;50.812;7.132;2023-03-29T14:53:03;2.63;;;1.93;;
4106;SDS011;21906;50.812;7.132;2023-03-29T14:55:30;3.43;;;2.10;;
4106;SDS011;21906;50.812;7.132;2023-03-29T14:57:56;2.20;;;2.00;;
4106;SDS011;21906;50.812;7.132;2023-03-29T15:02:58;2.63;;;2.23;;
4106;SDS011;21906;50.812;7.132;2023-03-29T15:08:00;2.10;;;2.00;;
4106;SDS011;21906;50.812;7.132;2023-03-29T15:10:29;2.30;;;2.10;;
4106;SDS011;21906;50.812;7.132;2023-03-29T15:12:57;2.87;;;2.10;;
4106;SDS011;21906;50.812;7.132;2023-03-29T15:15:24;3.10;;;2.40;;
4106;SDS011;21906;50.812;7.132;2023-03-29T15:17:51;2.83;;;2.30;;
4106;SDS011;21906;50.812;7.132;2023-03-29T15:20:23;2.50;;;2.30;;
4106;SDS011;21906;50.812;7.132;2023-03-29T15:23:06;2.63;;;2.40;;
4106;SDS011;21906;50.812;7.132;2023-03-29T15:25:47;2.33;;;2.13;;
4106;SDS011;21906;50.812;7.132;2023-03-29T15:28:23;2.73;;;2.50;;
4106;SDS011;21906;50.812;7.132;2023-03-29T15:30:55;3.00;;;2.73;;
4106;SDS011;21906;50.812;7.132;2023-03-29T15:33:23;2.60;;;2.40;;
4106;SDS011;21906;50.812;7.132;2023-03-29T15:35:55;3.13;;;2.87;;
4106;SDS011;21906;50.812;7.132;2023-03-29T15:38:21;3.20;;;2.90;;
4106;SDS011;21906;50.812;7.132;2023-03-29T15:40:47;2.67;;;2.47;;
4106;SDS011;21906;50.812;7.132;2023-03-29T15:43:12;3.73;;;3.20;;
4106;SDS011;21906;50.812;7.132;2023-03-29T15:45:38;2.70;;;2.50;;
4106;SDS011;21906;50.812;7.132;2023-03-29T15:48:14;2.80;;;2.60;;
4106;SDS011;21906;50.812;7.132;2023-03-29T15:50:42;3.33;;;2.50;;
4106;SDS011;21906;50.812;7.132;2023-03-29T15:53:08;2.77;;;2.57;;
4106;SDS011;21906;50.812;7.132;2023-03-29T15:55:34;3.30;;;3.00;;
4106;SDS011;21906;50.812;7.132;2023-03-29T15:57:59;3.10;;;2.53;;
4106;SDS011;21906;50.812;7.132;2023-03-29T16:00:25;2.53;;;2.37;;
4106;SDS011;21906;50.812;7.132;2023-03-29T16:02:51;2.87;;;2.67;;
4106;SDS011;21906;50.812;7.132;2023-03-29T16:05:17;3.13;;;2.43;;
4106;SDS011;21906;50.812;7.132;2023-03-29T16:07:42;2.40;;;2.20;;
4106;SDS011;21906;50.812;7.132;2023-03-29T16:10:08;2.20;;;2.10;;
4106;SDS011;21906;50.812;7.132;2023-03-29T16:12:34;2.50;;;2.30;;
4106;SDS011;21906;50.812;7.132;2023-03-29T16:15:23;2.67;;;2.50;;
4106;SDS011;21906;50.812;7.132;2023-03-29T16:17:48;2.40;;;2.20;;
4106;SDS011;21906;50.812;7.132;2023-03-29T16:20:14;3.30;;;2.20;;
4106;SDS011;21906;50.812;7.132;2023-03-29T16:22:44;2.30;;;2.10;;
4106;SDS011;21906;50.812;7.132;2023-03-29T16:25:12;2.97;;;2.50;;
4106;SDS011;21906;50.812;7.132;2023-03-29T16:27:43;3.13;;;1.90;;
4106;SDS011;21906;50.812;7.132;2023-03-29T16:30:10;3.47;;;3.17;;
4106;SDS011;21906;50.812;7.132;2023-03-29T16:32:36;2.50;;;2.30;;
4106;SDS011;21906;50.812;7.132;2023-03-29T16:35:03;2.27;;;2.07;;
4106;SDS011;21906;50.812;7.132;2023-03-29T16:37:30;2.40;;;2.13;;
4106;SDS011;21906;50.812;7.132;2023-03-29T16:39:56;2.53;;;2.33;;
4106;SDS011;21906;50.812;7.132;2023-03-29T16:42:22;2.33;;;2.13;;
4106;SDS011;21906;50.812;7.132;2023-03-29T16:44:47;3.20;;;2.20;;
4106;SDS011;21906;50.812;7.132;2023-03-29T16:47:13;2.20;;;2.10;;
4106;SDS011;21906;50.812;7.132;2023-03-29T16:49:39;2.17;;;2.07;;
4106;SDS011;21906;50.812;7.132;2023-03-29T16:52:04;3.27;;;2.10;;
4106;SDS011;21906;50.812;7.132;2023-03-29T16:54:30;3.60;;;2.03;;
4106;SDS011;21906;50.812;7.132;2023-03-29T16:56:56;2.37;;;2.13;;
4106;SDS011;21906;50.812;7.132;2023-03-29T16:59:22;2.00;;;1.87;;
4106;SDS011;21906;50.812;7.132;2023-03-29T17:01:48;2.30;;;1.80;;
4106;SDS011;21906;50.812;7.132;2023-03-29T17:04:13;1.90;;;1.80;;
4106;SDS011;21906;50.812;7.132;2023-03-29T17:06:39;2.07;;;1.60;;
4106;SDS011;21906;50.812;7.132;2023-03-29T17:09:06;3.33;;;2.13;;
4106;SDS011;21906;50.812;7.132;2023-03-29T17:11:32;2.80;;;1.90;;
4106;SDS011;21906;50.812;7.132;2023-03-29T17:13:58;2.13;;;1.93;;
4106;SDS011;21906;50.812;7.132;2023-03-29T17:16:24;2.07;;;1.97;;
4106;SDS011;21906;50.812;7.132;2023-03-29T17:18:52;3.73;;;2.10;;